createdAt,value
2022-11-09T00:00:08.611Z,1.10
2022-11-09T00:02:35.232Z,0.80
2022-11-09T00:05:02.480Z,0.90
2022-11-09T00:07:31.587Z,1.00
2022-11-09T00:09:58.288Z,0.73
2022-11-09T00:12:25.123Z,0.93
2022-11-09T00:14:52.035Z,1.00
2022-11-09T00:17:18.942Z,0.80
2022-11-09T00:19:45.760Z,0.90
2022-11-09T00:22:12.461Z,0.83
2022-11-09T00:24:39.332Z,1.00
2022-11-09T00:27:05.986Z,0.80
2022-11-09T00:29:32.700Z,0.90
2022-11-09T00:31:59.303Z,0.93
2022-11-09T00:34:26.266Z,1.00
2022-11-09T00:36:52.903Z,0.90
2022-11-09T00:39:19.701Z,0.93
2022-11-09T00:41:46.391Z,0.77
2022-11-09T00:44:13.116Z,1.00
2022-11-09T00:46:39.939Z,0.90
2022-11-09T00:49:06.576Z,0.90
2022-11-09T00:51:33.814Z,0.80
2022-11-09T00:54:00.712Z,0.90
2022-11-09T00:56:28.580Z,1.00
2022-11-09T00:58:55.976Z,0.80
2022-11-09T01:01:23.384Z,0.90
2022-11-09T01:03:50.177Z,0.73
2022-11-09T01:06:23.100Z,1.03
2022-11-09T01:08:50.644Z,1.00
2022-11-09T01:11:19.455Z,0.80
2022-11-09T01:13:46.820Z,0.90
2022-11-09T01:16:16.481Z,1.07
2022-11-09T01:18:43.667Z,0.87
2022-11-09T01:21:12.807Z,0.83
2022-11-09T01:23:40.592Z,0.77
2022-11-09T01:26:10.529Z,0.90
2022-11-09T01:28:37.420Z,0.63
2022-11-09T01:31:10.838Z,0.77
2022-11-09T01:33:37.752Z,0.90
2022-11-09T01:36:07.136Z,0.70
2022-11-09T01:38:35.572Z,0.70
2022-11-09T01:41:02.420Z,0.80
2022-11-09T01:43:29.404Z,1.10
2022-11-09T01:46:11.048Z,0.83
2022-11-09T01:48:43.377Z,0.70
2022-11-09T01:51:19.649Z,0.90
2022-11-09T01:53:50.007Z,1.13
2022-11-09T01:56:18.193Z,0.90
2022-11-09T01:58:53.581Z,0.77
2022-11-09T02:01:21.512Z,0.90
2022-11-09T02:04:08.025Z,1.27
2022-11-09T02:06:36.302Z,0.90
2022-11-09T02:09:15.222Z,0.70
2022-11-09T02:11:43.303Z,0.80
2022-11-09T02:14:10.248Z,0.80
2022-11-09T02:16:37.955Z,0.80
2022-11-09T02:19:04.849Z,1.00
2022-11-09T02:21:32.692Z,0.90
2022-11-09T02:24:00.220Z,0.90
2022-11-09T02:26:47.780Z,0.90
2022-11-09T02:29:18.889Z,0.70
2022-11-09T02:31:50.820Z,0.80
2022-11-09T02:34:20.062Z,0.90
2022-11-09T02:36:47.478Z,0.83
2022-11-09T02:39:25.654Z,0.60
2022-11-09T02:42:19.875Z,0.70
2022-11-09T02:44:51.743Z,0.90
2022-11-09T02:47:18.466Z,1.20
2022-11-09T02:49:46.747Z,0.80
2022-11-09T02:52:13.588Z,0.93
2022-11-09T02:54:40.301Z,0.70
2022-11-09T02:57:06.965Z,0.80
2022-11-09T02:59:33.870Z,0.80
2022-11-09T03:02:02.891Z,1.00
2022-11-09T03:04:31.120Z,0.90
2022-11-09T03:06:58.205Z,1.07
2022-11-09T03:09:25.679Z,1.00
2022-11-09T03:11:52.336Z,0.80
2022-11-09T03:14:21.363Z,0.70
2022-11-09T03:16:53.190Z,0.70
2022-11-09T03:19:20.056Z,0.90
2022-11-09T03:21:50.161Z,0.77
2022-11-09T03:24:21.419Z,0.63
2022-11-09T03:26:49.925Z,0.60
2022-11-09T03:29:16.575Z,0.70
2022-11-09T03:31:43.438Z,0.50
2022-11-09T03:34:10.588Z,0.50
2022-11-09T03:36:37.343Z,0.60
2022-11-09T03:39:04.099Z,0.70
2022-11-09T03:41:32.220Z,0.80
2022-11-09T03:43:58.947Z,0.80
2022-11-09T03:46:26.108Z,0.80
2022-11-09T03:48:53.080Z,0.70
2022-11-09T03:51:20.975Z,0.97
2022-11-09T03:53:47.598Z,0.80
2022-11-09T03:56:14.919Z,0.80
2022-11-09T03:58:41.529Z,0.80
2022-11-09T04:01:08.408Z,0.60
2022-11-09T04:03:35.096Z,0.67
2022-11-09T04:06:01.971Z,0.70
2022-11-09T04:08:28.688Z,0.70
2022-11-09T04:10:55.336Z,0.53
2022-11-09T04:13:22.520Z,1.10
2022-11-09T04:15:49.350Z,0.60
2022-11-09T04:18:17.187Z,0.70
2022-11-09T04:20:44.459Z,0.47
2022-11-09T04:23:12.816Z,0.60
2022-11-09T04:25:40.798Z,0.90
2022-11-09T04:28:11.138Z,0.60
2022-11-09T04:30:38.568Z,0.60
2022-11-09T04:33:05.672Z,0.50
2022-11-09T04:35:33.795Z,0.63
2022-11-09T04:38:10.280Z,0.87
2022-11-09T04:40:37.030Z,0.60
2022-11-09T04:43:06.291Z,0.60
2022-11-09T04:45:35.005Z,0.70
2022-11-09T04:48:03.628Z,0.60
2022-11-09T04:50:31.027Z,0.60
2022-11-09T04:53:07.846Z,0.70
2022-11-09T04:55:35.332Z,0.63
2022-11-09T04:58:02.183Z,0.70
2022-11-09T05:00:29.092Z,0.50
2022-11-09T05:02:58.795Z,0.63
2022-11-09T05:05:25.484Z,0.57
2022-11-09T05:07:52.390Z,0.50
2022-11-09T05:10:18.993Z,0.60
2022-11-09T05:12:46.194Z,0.67
2022-11-09T05:15:13.160Z,0.40
2022-11-09T05:17:39.884Z,0.60
2022-11-09T05:20:07.051Z,0.60
2022-11-09T05:22:52.552Z,0.50
2022-11-09T05:25:19.203Z,0.50
2022-11-09T05:27:46.023Z,0.47
2022-11-09T05:30:12.920Z,0.57
2022-11-09T05:32:39.720Z,1.33
2022-11-09T05:35:07.075Z,0.80
2022-11-09T05:37:33.756Z,0.60
2022-11-09T05:40:00.817Z,0.70
2022-11-09T05:42:27.413Z,0.60
2022-11-09T05:44:56.131Z,0.57
2022-11-09T05:47:23.257Z,0.70
2022-11-09T05:49:50.282Z,0.50
2022-11-09T05:52:16.884Z,0.60
2022-11-09T05:54:43.615Z,0.50
2022-11-09T05:57:10.276Z,0.40
2022-11-09T05:59:36.934Z,0.40
2022-11-09T06:02:03.950Z,0.60
2022-11-09T06:04:30.769Z,0.60
2022-11-09T06:06:57.655Z,0.50
2022-11-09T06:09:24.352Z,0.50
2022-11-09T06:11:51.330Z,0.50
2022-11-09T06:14:18.009Z,0.50
2022-11-09T06:16:44.640Z,0.50
2022-11-09T06:19:11.461Z,0.50
2022-11-09T06:21:38.301Z,0.40
2022-11-09T06:24:05.074Z,0.40
2022-11-09T06:26:31.832Z,0.37
2022-11-09T06:28:58.592Z,0.70
2022-11-09T06:31:25.605Z,0.40
2022-11-09T06:33:52.288Z,0.50
2022-11-09T06:36:19.134Z,0.50
2022-11-09T06:38:49.403Z,0.30
2022-11-09T06:41:16.326Z,0.60
2022-11-09T06:43:43.210Z,0.43
2022-11-09T06:46:11.010Z,0.53
2022-11-09T06:48:40.396Z,0.30
2022-11-09T06:51:07.381Z,0.30
2022-11-09T06:53:35.096Z,0.43
2022-11-09T06:56:03.306Z,0.30
2022-11-09T06:58:30.739Z,0.40
2022-11-09T07:00:57.799Z,0.50
2022-11-09T07:03:25.184Z,0.40
2022-11-09T07:05:53.154Z,0.30
2022-11-09T07:08:20.075Z,0.30
2022-11-09T07:10:46.789Z,0.40
2022-11-09T07:13:13.521Z,0.40
2022-11-09T07:15:40.273Z,0.50
2022-11-09T07:18:11.877Z,0.50
2022-11-09T07:20:38.565Z,0.30
2022-11-09T07:23:05.420Z,0.40
2022-11-09T07:25:32.657Z,0.50
2022-11-09T07:28:04.782Z,0.60
2022-11-09T07:30:31.656Z,0.30
2022-11-09T07:33:09.135Z,0.50
2022-11-09T07:35:36.287Z,0.30
2022-11-09T07:38:02.906Z,0.57
2022-11-09T07:40:30.379Z,0.37
2022-11-09T07:43:01.733Z,0.57
2022-11-09T07:45:29.484Z,0.40
2022-11-09T07:48:01.754Z,0.63
2022-11-09T07:50:30.488Z,0.50
2022-11-09T07:52:58.851Z,0.50
2022-11-09T07:55:26.865Z,0.50
2022-11-09T07:58:01.783Z,0.50
2022-11-09T08:00:30.546Z,0.60
2022-11-09T08:02:57.513Z,0.90
2022-11-09T08:05:24.809Z,0.60
2022-11-09T08:08:03.316Z,0.50
2022-11-09T08:10:31.476Z,0.40
2022-11-09T08:13:01.709Z,0.80
2022-11-09T08:15:29.435Z,0.50
2022-11-09T08:18:03.401Z,0.57
2022-11-09T08:20:31.035Z,0.60
2022-11-09T08:23:03.377Z,0.60
2022-11-09T08:25:33.160Z,0.70
2022-11-09T08:27:59.746Z,0.40
2022-11-09T08:30:26.841Z,0.50
2022-11-09T08:32:53.572Z,0.80
2022-11-09T08:35:21.984Z,1.03
2022-11-09T08:37:50.581Z,0.53
2022-11-09T08:40:20.482Z,0.60
2022-11-09T08:42:47.560Z,0.50
2022-11-09T08:45:14.996Z,0.50
2022-11-09T08:47:42.205Z,0.60
2022-11-09T08:50:11.227Z,0.50
2022-11-09T08:52:38.141Z,0.67
2022-11-09T08:55:05.893Z,0.40
2022-11-09T08:57:33.411Z,0.60
2022-11-09T09:00:00.043Z,0.53
2022-11-09T09:02:26.878Z,0.50
2022-11-09T09:04:53.610Z,0.40
2022-11-09T09:07:21.460Z,0.50
2022-11-09T09:09:48.212Z,0.40
2022-11-09T09:12:15.057Z,0.63
2022-11-09T09:14:41.708Z,0.40
2022-11-09T09:17:08.539Z,0.43
2022-11-09T09:19:35.193Z,0.45
2022-11-09T09:22:02.637Z,0.40
2022-11-09T09:24:29.324Z,0.43
2022-11-09T09:26:56.194Z,0.45
2022-11-09T09:29:23.096Z,0.50
2022-11-09T09:31:49.813Z,0.40
2022-11-09T09:34:16.651Z,0.43
2022-11-09T09:36:48.049Z,0.50
2022-11-09T09:39:16.049Z,0.40
2022-11-09T09:41:52.061Z,0.40
2022-11-09T09:44:40.349Z,0.30
2022-11-09T09:47:18.659Z,0.90
2022-11-09T09:50:01.452Z,0.50
2022-11-09T09:52:47.661Z,0.40
2022-11-09T09:55:30.992Z,0.50
2022-11-09T09:58:06.726Z,0.83
2022-11-09T10:00:35.696Z,0.60
2022-11-09T10:03:02.424Z,0.50
2022-11-09T10:05:46.162Z,0.57
2022-11-09T10:08:22.203Z,0.47
2022-11-09T10:11:27.195Z,0.40
2022-11-09T10:14:17.092Z,0.30
2022-11-09T10:17:14.170Z,0.32
2022-11-09T10:20:12.151Z,0.35
2022-11-09T10:22:48.430Z,0.30
2022-11-09T10:25:43.454Z,0.45
2022-11-09T10:28:14.229Z,0.50
2022-11-09T10:30:41.765Z,0.45
2022-11-09T10:33:11.372Z,0.30
2022-11-09T10:35:45.101Z,0.32
2022-11-09T10:38:35.927Z,0.45
2022-11-09T10:41:26.800Z,0.40
2022-11-09T10:44:18.148Z,0.38
2022-11-09T10:47:16.773Z,0.50
2022-11-09T10:50:22.056Z,0.80
2022-11-09T10:53:19.295Z,0.40
2022-11-09T10:56:21.289Z,0.50
2022-11-09T10:59:36.783Z,0.70
2022-11-09T11:02:25.296Z,0.50
2022-11-09T11:05:12.589Z,0.52
2022-11-09T11:07:59.005Z,1.00
2022-11-09T11:10:44.047Z,0.80
2022-11-09T11:13:29.583Z,0.53
2022-11-09T11:16:33.198Z,0.47
2022-11-09T11:19:41.435Z,0.40
2022-11-09T11:22:27.389Z,0.50
2022-11-09T11:25:21.788Z,0.60
2022-11-09T11:28:42.277Z,0.50
2022-11-09T11:31:27.796Z,0.57
2022-11-09T11:34:32.158Z,0.73
2022-11-09T11:37:39.804Z,0.47
2022-11-09T11:40:38.027Z,0.80
2022-11-09T11:43:36.279Z,0.60
2022-11-09T11:47:06.893Z,0.70
2022-11-09T11:50:12.008Z,0.60
2022-11-09T11:53:28.389Z,0.50
2022-11-09T11:56:44.061Z,0.63
2022-11-09T11:59:53.999Z,0.87
2022-11-09T12:03:04.048Z,0.40
2022-11-09T12:06:30.459Z,0.47
2022-11-09T12:09:33.351Z,0.50
2022-11-09T12:12:35.432Z,0.60
2022-11-09T12:15:52.288Z,0.50
2022-11-09T12:18:40.315Z,0.70
2022-11-09T12:21:34.176Z,0.60
2022-11-09T12:24:33.560Z,0.70
2022-11-09T12:27:44.234Z,0.50
2022-11-09T12:31:06.724Z,0.60
2022-11-09T12:34:00.239Z,0.50
2022-11-09T12:36:54.407Z,0.77
2022-11-09T12:39:58.277Z,0.53
2022-11-09T12:42:53.860Z,0.60
2022-11-09T12:45:40.987Z,0.93
2022-11-09T12:48:30.954Z,0.60
2022-11-09T12:51:16.965Z,0.60
2022-11-09T12:54:09.956Z,0.60
2022-11-09T12:57:02.331Z,0.60
2022-11-09T12:59:56.400Z,0.80
2022-11-09T13:02:56.375Z,0.50
2022-11-09T13:05:43.012Z,0.60
2022-11-09T13:08:30.895Z,0.60
2022-11-09T13:11:40.886Z,0.70
2022-11-09T13:14:33.478Z,0.40
2022-11-09T13:17:24.888Z,0.60
2022-11-09T13:20:53.917Z,0.67
2022-11-09T13:23:59.999Z,0.70
2022-11-09T13:26:46.494Z,0.77
2022-11-09T13:29:40.894Z,0.70
2022-11-09T13:32:33.593Z,0.50
2022-11-09T13:35:41.080Z,0.70
2022-11-09T13:38:30.641Z,0.60
2022-11-09T13:41:32.064Z,1.07
2022-11-09T13:44:22.167Z,0.77
2022-11-09T13:47:29.782Z,0.60
2022-11-09T13:50:21.017Z,0.57
2022-11-09T13:53:30.834Z,0.60
2022-11-09T13:56:28.196Z,0.80
2022-11-09T13:59:22.057Z,1.10
2022-11-09T14:02:18.333Z,0.90
2022-11-09T14:05:03.734Z,0.57
2022-11-09T14:07:48.868Z,0.80
2022-11-09T14:10:59.161Z,0.90
2022-11-09T14:14:11.976Z,1.20
2022-11-09T14:17:08.745Z,0.70
2022-11-09T14:20:17.672Z,0.97
2022-11-09T14:23:03.097Z,0.80
2022-11-09T14:25:49.228Z,0.70
2022-11-09T14:28:36.607Z,0.70
2022-11-09T14:31:23.733Z,0.60
2022-11-09T14:34:15.495Z,0.70
2022-11-09T14:37:04.849Z,0.60
2022-11-09T14:39:54.194Z,0.80
2022-11-09T14:42:44.928Z,0.80
2022-11-09T14:45:31.575Z,0.60
2022-11-09T14:48:20.122Z,0.53
2022-11-09T14:51:11.919Z,0.90
2022-11-09T14:53:58.302Z,1.10
2022-11-09T14:56:44.621Z,1.10
2022-11-09T14:59:32.918Z,1.00
2022-11-09T15:02:20.969Z,0.77
2022-11-09T15:05:07.405Z,0.70
2022-11-09T15:07:53.110Z,1.00
2022-11-09T15:10:38.795Z,1.00
2022-11-09T15:13:32.157Z,1.00
2022-11-09T15:16:28.857Z,1.67
2022-11-09T15:19:29.608Z,0.90
2022-11-09T15:22:36.882Z,0.90
2022-11-09T15:25:28.260Z,0.87
2022-11-09T15:28:13.637Z,1.57
2022-11-09T15:30:59.128Z,0.90
2022-11-09T15:33:52.134Z,0.90
2022-11-09T15:36:39.879Z,0.70
2022-11-09T15:39:28.447Z,1.03
2022-11-09T15:42:13.989Z,1.43
2022-11-09T15:44:59.897Z,1.20
2022-11-09T15:47:52.331Z,1.20
2022-11-09T15:50:37.357Z,1.20
2022-11-09T15:53:23.511Z,1.33
2022-11-09T15:56:19.230Z,1.60
2022-11-09T15:59:05.358Z,1.43
2022-11-09T16:01:51.252Z,1.20
2022-11-09T16:04:36.666Z,4.40
2022-11-09T16:07:22.141Z,3.33
2022-11-09T16:10:12.741Z,1.90
2022-11-09T16:12:58.394Z,1.40
2022-11-09T16:15:43.889Z,1.30
2022-11-09T16:18:29.368Z,0.93
2022-11-09T16:21:17.236Z,1.00
2022-11-09T16:24:02.622Z,0.67
2022-11-09T16:26:48.136Z,0.90
2022-11-09T16:29:33.873Z,1.17
2022-11-09T16:32:19.147Z,1.17
2022-11-09T16:35:25.975Z,0.87
2022-11-09T16:38:11.681Z,0.80
2022-11-09T16:40:59.811Z,0.90
2022-11-09T16:43:46.821Z,0.90
2022-11-09T16:46:33.848Z,0.80
2022-11-09T16:49:18.995Z,1.20
2022-11-09T16:52:04.667Z,0.80
2022-11-09T16:54:50.090Z,1.00
2022-11-09T16:57:36.382Z,1.30
2022-11-09T17:00:27.680Z,0.90
2022-11-09T17:03:22.918Z,1.03
2022-11-09T17:06:11.287Z,0.70
2022-11-09T17:08:56.905Z,0.70
2022-11-09T17:11:42.493Z,1.00
2022-11-09T17:14:31.040Z,1.20
2022-11-09T17:17:22.233Z,1.13
2022-11-09T17:20:08.877Z,0.70
2022-11-09T17:22:54.491Z,0.70
2022-11-09T17:25:40.246Z,0.83
2022-11-09T17:28:27.069Z,1.13
2022-11-09T17:31:23.122Z,1.00
2022-11-09T17:34:08.827Z,1.17
2022-11-09T17:37:09.390Z,1.13
2022-11-09T17:39:54.420Z,1.50
2022-11-09T17:42:39.963Z,1.27
2022-11-09T17:45:25.365Z,1.00
2022-11-09T17:48:10.802Z,1.10
2022-11-09T17:50:57.537Z,1.00
2022-11-09T17:53:42.985Z,0.90
2022-11-09T17:56:28.320Z,0.90
2022-11-09T17:59:13.577Z,0.90
2022-11-09T18:01:59.138Z,0.90
2022-11-09T18:04:44.375Z,1.00
2022-11-09T18:07:30.972Z,0.90
2022-11-09T18:10:16.225Z,1.20
2022-11-09T18:13:01.846Z,0.90
2022-11-09T18:15:47.441Z,0.73
2022-11-09T18:18:33.129Z,0.90
2022-11-09T18:21:19.865Z,1.00
2022-11-09T18:24:05.534Z,0.93
2022-11-09T18:26:50.715Z,1.03
2022-11-09T18:29:36.082Z,1.07
2022-11-09T18:32:21.671Z,1.00
2022-11-09T18:35:08.102Z,0.90
2022-11-09T18:37:53.118Z,1.20
2022-11-09T18:40:38.470Z,1.30
2022-11-09T18:43:23.756Z,0.80
2022-11-09T18:46:11.606Z,1.73
2022-11-09T18:48:57.074Z,0.73
2022-11-09T18:51:43.548Z,0.77
2022-11-09T18:54:29.008Z,0.80
2022-11-09T18:57:19.486Z,0.87
2022-11-09T19:00:05.615Z,1.00
2022-11-09T19:02:50.958Z,0.90
2022-11-09T19:05:39.973Z,0.83
2022-11-09T19:08:44.312Z,1.00
2022-11-09T19:11:30.525Z,0.90
2022-11-09T19:14:15.653Z,1.10
2022-11-09T19:17:01.168Z,0.90
2022-11-09T19:19:46.488Z,1.20
2022-11-09T19:22:34.711Z,1.03
2022-11-09T19:25:20.088Z,1.20
2022-11-09T19:28:05.495Z,1.10
2022-11-09T19:30:50.724Z,0.90
2022-11-09T19:33:36.216Z,1.10
2022-11-09T19:36:30.405Z,1.37
2022-11-09T19:39:17.492Z,1.20
2022-11-09T19:42:02.640Z,1.17
2022-11-09T19:44:50.964Z,1.47
2022-11-09T19:47:40.331Z,1.47
2022-11-09T19:50:25.641Z,1.20
2022-11-09T19:53:11.169Z,1.40
2022-11-09T19:56:01.328Z,0.93
2022-11-09T19:58:51.097Z,1.57
2022-11-09T20:01:36.541Z,1.47
2022-11-09T20:04:21.976Z,1.57
2022-11-09T20:07:07.662Z,1.30
2022-11-09T20:09:52.944Z,1.20
2022-11-09T20:12:50.320Z,1.33
2022-11-09T20:15:36.237Z,1.43
2022-11-09T20:18:24.043Z,1.20
2022-11-09T20:21:09.746Z,1.00
2022-11-09T20:23:54.881Z,0.90
2022-11-09T20:26:42.193Z,1.10
2022-11-09T20:29:27.402Z,1.13
2022-11-09T20:32:14.780Z,1.50
2022-11-09T20:35:02.109Z,1.13
2022-11-09T20:37:47.230Z,1.20
2022-11-09T20:40:32.564Z,1.50
2022-11-09T20:43:18.004Z,1.10
2022-11-09T20:46:13.742Z,0.80
2022-11-09T20:49:00.838Z,0.97
2022-11-09T20:51:46.621Z,1.00
2022-11-09T20:54:31.818Z,0.90
2022-11-09T20:57:17.751Z,0.83
2022-11-09T21:00:05.225Z,1.37
2022-11-09T21:02:50.572Z,1.03
2022-11-09T21:05:35.952Z,1.30
2022-11-09T21:08:21.467Z,0.93
2022-11-09T21:11:07.937Z,1.10
2022-11-09T21:13:54.144Z,1.10
2022-11-09T21:16:40.027Z,1.00
2022-11-09T21:19:25.131Z,0.97
2022-11-09T21:22:11.395Z,0.93
2022-11-09T21:25:15.017Z,1.10
2022-11-09T21:28:18.898Z,1.07
2022-11-09T21:31:05.024Z,1.00
2022-11-09T21:33:53.057Z,1.17
2022-11-09T21:36:38.102Z,0.90
2022-11-09T21:39:23.944Z,1.03
2022-11-09T21:42:11.984Z,1.23
2022-11-09T21:44:57.455Z,1.00
2022-11-09T21:47:42.766Z,1.03
2022-11-09T21:50:28.246Z,1.00
2022-11-09T21:53:13.625Z,1.07
2022-11-09T21:56:02.197Z,0.87
2022-11-09T21:58:48.267Z,1.00
2022-11-09T22:01:33.747Z,0.97
2022-11-09T22:04:19.208Z,1.10
2022-11-09T22:07:04.431Z,0.90
2022-11-09T22:10:09.267Z,1.53
2022-11-09T22:13:13.970Z,0.90
2022-11-09T22:16:06.579Z,1.00
2022-11-09T22:19:11.370Z,0.77
2022-11-09T22:21:56.949Z,0.70
2022-11-09T22:24:43.398Z,0.80
2022-11-09T22:27:31.432Z,0.90
2022-11-09T22:30:17.288Z,0.90
2022-11-09T22:33:02.784Z,1.10
2022-11-09T22:35:59.128Z,0.90
2022-11-09T22:38:45.426Z,1.10
2022-11-09T22:41:30.535Z,1.10
2022-11-09T22:44:16.215Z,1.10
2022-11-09T22:47:01.728Z,1.00
2022-11-09T22:49:46.730Z,0.93
2022-11-09T22:52:31.967Z,0.87
2022-11-09T22:55:18.611Z,1.10
2022-11-09T22:58:04.318Z,1.23
2022-11-09T23:00:50.193Z,1.20
2022-11-09T23:03:35.777Z,0.80
2022-11-09T23:06:22.572Z,0.90
2022-11-09T23:09:07.845Z,1.00
2022-11-09T23:11:53.359Z,0.70
2022-11-09T23:14:57.152Z,0.80
2022-11-09T23:18:01.141Z,0.80
2022-11-09T23:20:47.060Z,0.80
2022-11-09T23:23:32.643Z,0.90
2022-11-09T23:26:18.222Z,1.30
2022-11-09T23:29:03.625Z,0.77
2022-11-09T23:31:48.934Z,0.83
2022-11-09T23:34:34.289Z,0.70
2022-11-09T23:37:19.632Z,0.90
2022-11-09T23:40:06.123Z,1.07
2022-11-09T23:42:51.539Z,1.10
2022-11-09T23:45:40.804Z,0.90
2022-11-09T23:48:26.081Z,1.00
2022-11-09T23:51:12.158Z,1.10
2022-11-09T23:53:57.514Z,0.80
2022-11-09T23:56:43.052Z,1.33
2022-11-09T23:59:28.440Z,0.87
